createdAt,value
2019-01-03T00:00:18.049Z,-969.47
2019-01-03T00:01:18.180Z,-967.56
2019-01-03T00:02:18.292Z,-970.19
2019-01-03T00:03:18.385Z,-968.48
2019-01-03T00:04:18.533Z,-969.02
2019-01-03T00:05:18.615Z,-969.07
2019-01-03T00:06:18.749Z,-966.58
2019-01-03T00:07:18.851Z,-972.02
2019-01-03T00:08:18.952Z,-970.08
2019-01-03T00:09:19.069Z,-971.19
2019-01-03T00:10:19.183Z,-971.29
2019-01-03T00:11:19.323Z,-972.07
2019-01-03T00:12:19.508Z,-968.06
2019-01-03T00:13:19.527Z,-967.69
2019-01-03T00:14:19.643Z,-971.41
2019-01-03T00:15:19.781Z,-966.48
2019-01-03T00:16:19.886Z,-964.71
2019-01-03T00:17:20.012Z,-967.80
2019-01-03T00:18:20.116Z,-967.64
2019-01-03T00:19:20.231Z,-971.98
2019-01-03T00:20:20.382Z,-968.82
2019-01-03T00:21:20.549Z,-965.00
2019-01-03T00:22:20.571Z,-974.83
2019-01-03T00:23:20.705Z,-970.89
2019-01-03T00:24:20.817Z,-974.06
2019-01-03T00:25:20.975Z,-967.57
2019-01-03T00:26:21.077Z,-974.15
2019-01-03T00:27:21.156Z,-964.62
2019-01-03T00:28:21.277Z,-910.66
2019-01-03T00:29:21.499Z,-968.45
2019-01-03T00:30:21.528Z,-971.24
2019-01-03T00:31:21.651Z,-969.10
2019-01-03T00:32:21.726Z,-969.37
2019-01-03T00:33:21.875Z,-965.70
2019-01-03T00:34:22.004Z,-973.84
2019-01-03T00:35:22.130Z,-972.68
2019-01-03T00:36:22.261Z,-971.26
2019-01-03T00:37:22.444Z,-968.26
2019-01-03T00:38:22.464Z,-970.60
2019-01-03T00:39:22.576Z,-970.49
2019-01-03T00:40:22.699Z,-972.06
2019-01-03T00:41:22.843Z,-969.93
2019-01-03T00:42:22.921Z,-969.49
2019-01-03T00:43:23.039Z,-969.42
2019-01-03T00:44:23.154Z,-970.51
2019-01-03T00:45:23.359Z,-974.20
2019-01-03T00:46:23.390Z,-967.65
2019-01-03T00:47:23.504Z,-974.91
2019-01-03T00:48:23.662Z,-969.27
2019-01-03T00:49:23.718Z,-972.36
2019-01-03T00:50:23.867Z,-970.46
2019-01-03T00:51:24.063Z,-967.64
2019-01-03T00:52:24.081Z,-958.39
2019-01-03T00:53:24.249Z,-973.66
2019-01-03T00:54:24.272Z,-971.24
2019-01-03T00:55:24.414Z,-970.81
2019-01-03T00:56:24.559Z,-974.56
2019-01-03T00:57:24.646Z,-973.85
2019-01-03T00:58:24.785Z,-970.47
2019-01-03T00:59:24.875Z,-973.33
2019-01-03T01:00:25.015Z,-970.68
2019-01-03T01:01:25.166Z,-973.95
2019-01-03T01:02:25.300Z,-970.08
2019-01-03T01:03:25.368Z,-969.29
2019-01-03T01:04:25.459Z,-969.53
2019-01-03T01:05:25.583Z,-969.06
2019-01-03T01:06:25.700Z,-973.28
2019-01-03T01:07:25.797Z,-971.28
2019-01-03T01:08:25.938Z,-972.71
2019-01-03T01:09:26.039Z,-972.99
2019-01-03T01:10:26.247Z,-971.54
2019-01-03T01:11:26.272Z,-973.71
2019-01-03T01:12:26.395Z,-973.31
2019-01-03T01:13:26.530Z,-979.59
2019-01-03T01:14:26.647Z,-975.27
2019-01-03T01:15:26.756Z,-973.92
2019-01-03T01:16:26.874Z,-971.75
2019-01-03T01:17:26.961Z,-967.98
2019-01-03T01:18:27.195Z,-973.91
2019-01-03T01:19:27.192Z,-974.38
2019-01-03T01:20:27.327Z,-973.09
2019-01-03T01:21:27.688Z,-972.64
2019-01-03T01:22:27.532Z,-972.94
2019-01-03T01:23:27.676Z,-972.00
2019-01-03T01:24:27.774Z,-977.22
2019-01-03T01:25:27.906Z,-977.51
2019-01-03T01:26:28.061Z,-980.48
2019-01-03T01:27:28.101Z,-981.99
2019-01-03T01:28:28.233Z,-976.80
2019-01-03T01:29:28.398Z,-973.19
2019-01-03T01:30:28.471Z,-978.73
2019-01-03T01:31:28.589Z,-976.50
2019-01-03T01:32:28.700Z,-978.54
2019-01-03T01:33:28.832Z,-973.88
2019-01-03T01:34:29.022Z,-977.32
2019-01-03T01:35:29.036Z,-974.20
2019-01-03T01:36:29.184Z,-975.13
2019-01-03T01:37:29.297Z,-976.06
2019-01-03T01:38:29.433Z,-974.99
2019-01-03T01:39:29.554Z,-974.46
2019-01-03T01:40:29.629Z,-974.64
2019-01-03T01:41:29.774Z,-976.69
2019-01-03T01:42:29.947Z,-976.62
2019-01-03T01:43:30.123Z,-972.58
2019-01-03T01:44:30.136Z,-976.11
2019-01-03T01:45:30.236Z,-971.81
2019-01-03T01:46:30.377Z,-974.04
2019-01-03T01:47:30.563Z,-974.39
2019-01-03T01:48:30.614Z,-972.33
2019-01-03T01:49:30.711Z,-975.28
2019-01-03T01:50:30.831Z,-971.04
2019-01-03T01:51:31.059Z,-975.41
2019-01-03T01:52:31.081Z,-972.54
2019-01-03T01:53:31.189Z,-977.84
2019-01-03T01:54:31.284Z,-973.90
2019-01-03T01:55:31.380Z,-970.97
2019-01-03T01:56:31.532Z,-972.69
2019-01-03T01:57:31.667Z,-972.50
2019-01-03T01:58:31.774Z,-975.74
2019-01-03T01:59:31.976Z,-972.83
2019-01-03T02:00:31.973Z,-972.08
2019-01-03T02:01:32.089Z,-973.50
2019-01-03T02:02:32.209Z,-971.00
2019-01-03T02:03:32.346Z,-972.24
2019-01-03T02:04:32.452Z,-974.03
2019-01-03T02:05:32.576Z,-973.90
2019-01-03T02:06:32.702Z,-972.46
2019-01-03T02:07:32.836Z,-969.26
2019-01-03T02:08:32.915Z,-975.07
2019-01-03T02:09:33.020Z,-968.24
2019-01-03T02:10:33.164Z,-975.89
2019-01-03T02:11:33.265Z,-972.21
2019-01-03T02:12:33.401Z,-969.45
2019-01-03T02:13:33.481Z,-973.13
2019-01-03T02:14:33.604Z,-973.54
2019-01-03T02:15:33.758Z,-973.80
2019-01-03T02:16:33.914Z,-972.88
2019-01-03T02:17:33.992Z,-972.07
2019-01-03T02:18:34.081Z,-981.56
2019-01-03T02:19:34.178Z,-969.77
2019-01-03T02:20:34.309Z,-973.98
2019-01-03T02:21:34.439Z,-970.97
2019-01-03T02:22:34.564Z,-976.68
2019-01-03T02:23:34.695Z,-974.28
2019-01-03T02:24:34.859Z,-976.33
2019-01-03T02:25:34.891Z,-972.53
2019-01-03T02:26:35.037Z,-970.04
2019-01-03T02:27:35.124Z,-971.41
2019-01-03T02:28:35.257Z,-967.94
2019-01-03T02:29:35.339Z,-975.09
2019-01-03T02:30:35.473Z,-973.86
2019-01-03T02:31:35.646Z,-974.65
2019-01-03T02:32:35.890Z,-971.55
2019-01-03T02:33:35.857Z,-971.03
2019-01-03T02:34:35.964Z,-970.93
2019-01-03T02:35:36.106Z,-968.38
2019-01-03T02:36:36.230Z,-917.34
2019-01-03T02:37:36.357Z,-973.93
2019-01-03T02:38:36.473Z,-974.05
2019-01-03T02:39:36.577Z,-976.85
2019-01-03T02:40:36.767Z,-979.12
2019-01-03T02:41:36.805Z,-976.35
2019-01-03T02:42:36.911Z,-974.70
2019-01-03T02:43:37.059Z,-973.71
2019-01-03T02:44:37.159Z,-972.80
2019-01-03T02:45:37.274Z,-974.51
2019-01-03T02:46:37.408Z,-975.78
2019-01-03T02:47:37.511Z,-976.34
2019-01-03T02:48:37.688Z,-978.63
2019-01-03T02:49:37.756Z,-977.87
2019-01-03T02:50:37.853Z,-975.08
2019-01-03T02:51:37.986Z,-974.97
2019-01-03T02:52:38.077Z,-974.55
2019-01-03T02:53:38.209Z,-976.02
2019-01-03T02:54:38.344Z,-977.70
2019-01-03T02:55:38.443Z,-977.97
2019-01-03T02:56:38.611Z,-974.12
2019-01-03T02:57:38.768Z,-975.37
2019-01-03T02:58:38.818Z,-976.91
2019-01-03T02:59:39.148Z,-975.93
2019-01-03T03:00:39.022Z,-975.83
2019-01-03T03:01:39.150Z,-978.81
2019-01-03T03:02:39.250Z,-976.60
2019-01-03T03:03:39.383Z,-972.19
2019-01-03T03:04:39.507Z,-980.06
2019-01-03T03:05:39.727Z,-977.96
2019-01-03T03:06:39.729Z,-974.44
2019-01-03T03:07:39.828Z,-975.90
2019-01-03T03:08:39.957Z,-975.15
2019-01-03T03:09:40.068Z,-978.70
2019-01-03T03:10:40.195Z,-920.25
2019-01-03T03:11:40.393Z,-973.28
2019-01-03T03:12:40.417Z,-978.65
2019-01-03T03:13:40.667Z,-976.02
2019-01-03T03:14:40.703Z,-977.43
2019-01-03T03:15:40.766Z,-978.42
2019-01-03T03:16:40.955Z,-976.94
2019-01-03T03:17:41.005Z,-975.52
2019-01-03T03:18:41.150Z,-976.54
2019-01-03T03:19:41.254Z,-976.49
2019-01-03T03:20:41.337Z,-976.52
2019-01-03T03:21:41.540Z,-973.82
2019-01-03T03:22:41.567Z,-975.50
2019-01-03T03:23:41.719Z,-971.51
2019-01-03T03:24:41.845Z,-978.44
2019-01-03T03:25:41.902Z,-971.48
2019-01-03T03:26:42.036Z,-973.09
2019-01-03T03:27:42.150Z,-977.15
2019-01-03T03:28:42.297Z,-978.59
2019-01-03T03:29:42.453Z,-979.80
2019-01-03T03:30:42.513Z,-978.04
2019-01-03T03:31:42.610Z,-917.29
2019-01-03T03:32:42.729Z,-917.18
2019-01-03T03:33:42.883Z,-919.68
2019-01-03T03:34:42.989Z,-916.27
2019-01-03T03:35:43.087Z,-915.80
2019-01-03T03:36:43.221Z,-917.28
2019-01-03T03:37:43.319Z,-920.21
2019-01-03T03:38:43.567Z,-920.88
2019-01-03T03:39:43.562Z,-919.49
2019-01-03T03:40:43.677Z,-922.52
2019-01-03T03:41:43.776Z,-919.72
2019-01-03T03:42:43.893Z,-918.13
2019-01-03T03:43:44.026Z,-922.72
2019-01-03T03:44:44.143Z,-919.19
2019-01-03T03:45:44.250Z,-921.56
2019-01-03T03:46:44.501Z,-921.32
2019-01-03T03:47:44.492Z,-925.49
2019-01-03T03:48:44.636Z,-924.02
2019-01-03T03:49:44.755Z,-926.35
2019-01-03T03:50:44.853Z,-922.61
2019-01-03T03:51:44.972Z,-925.99
2019-01-03T03:52:45.114Z,-919.22
2019-01-03T03:53:45.218Z,-921.44
2019-01-03T03:54:45.401Z,-919.08
2019-01-03T03:55:45.426Z,-917.53
2019-01-03T03:56:45.549Z,-920.43
2019-01-03T03:57:45.671Z,-923.41
2019-01-03T03:58:45.814Z,-919.60
2019-01-03T03:59:45.897Z,-916.91
2019-01-03T04:00:46.011Z,-925.00
2019-01-03T04:01:46.160Z,-920.65
2019-01-03T04:02:46.340Z,-912.45
2019-01-03T04:03:46.347Z,-923.94
2019-01-03T04:04:46.478Z,-920.26
2019-01-03T04:05:46.560Z,-921.50
2019-01-03T04:06:46.690Z,-917.28
2019-01-03T04:07:46.819Z,-921.65
2019-01-03T04:08:46.947Z,-916.79
2019-01-03T04:09:47.077Z,-919.77
2019-01-03T04:10:47.161Z,-921.60
2019-01-03T04:11:47.289Z,-916.55
2019-01-03T04:12:47.417Z,-920.75
2019-01-03T04:13:47.516Z,-920.01
2019-01-03T04:14:47.670Z,-917.89
2019-01-03T04:15:47.773Z,-921.93
2019-01-03T04:16:47.852Z,-921.16
2019-01-03T04:17:47.997Z,-924.00
2019-01-03T04:18:48.141Z,-917.40
2019-01-03T04:19:48.387Z,-916.02
2019-01-03T04:20:48.344Z,-919.94
2019-01-03T04:21:48.444Z,-919.35
2019-01-03T04:22:48.586Z,-918.12
2019-01-03T04:23:48.704Z,-919.35
2019-01-03T04:24:48.838Z,-914.26
2019-01-03T04:25:48.928Z,-921.92
2019-01-03T04:26:49.040Z,-916.83
2019-01-03T04:27:49.291Z,-918.12
2019-01-03T04:28:49.278Z,-917.31
2019-01-03T04:29:49.431Z,-917.34
2019-01-03T04:30:49.512Z,-919.58
2019-01-03T04:31:49.604Z,-911.32
2019-01-03T04:32:49.746Z,-910.26
2019-01-03T04:33:49.857Z,-921.19
2019-01-03T04:34:50.015Z,-914.33
2019-01-03T04:35:50.170Z,-917.06
2019-01-03T04:36:50.420Z,-915.72
2019-01-03T04:37:50.314Z,-916.34
2019-01-03T04:38:50.416Z,-916.12
2019-01-03T04:39:50.587Z,-917.15
2019-01-03T04:40:50.659Z,-914.71
2019-01-03T04:41:50.780Z,-912.38
2019-01-03T04:42:50.913Z,-916.56
2019-01-03T04:43:51.049Z,-913.91
2019-01-03T04:44:51.118Z,-912.20
2019-01-03T04:45:51.263Z,-911.96
2019-01-03T04:46:51.362Z,-914.45
2019-01-03T04:47:51.495Z,-913.69
2019-01-03T04:48:51.596Z,-913.85
2019-01-03T04:49:51.726Z,-912.39
2019-01-03T04:50:51.846Z,-915.04
2019-01-03T04:51:52.022Z,-910.37
2019-01-03T04:52:52.173Z,-911.12
2019-01-03T04:53:52.198Z,-915.05
2019-01-03T04:54:52.312Z,-912.50
2019-01-03T04:55:52.455Z,-913.41
2019-01-03T04:56:52.561Z,-912.39
2019-01-03T04:57:52.707Z,-916.09
2019-01-03T04:58:52.800Z,-909.15
2019-01-03T04:59:52.954Z,-907.79
2019-01-03T05:00:53.183Z,-908.98
2019-01-03T05:01:53.154Z,-910.46
2019-01-03T05:02:53.280Z,-914.13
2019-01-03T05:03:53.379Z,-915.33
2019-01-03T05:04:53.502Z,-916.24
2019-01-03T05:05:53.651Z,-915.07
2019-01-03T05:06:53.706Z,-911.75
2019-01-03T05:07:53.857Z,-912.74
2019-01-03T05:08:54.079Z,-912.08
2019-01-03T05:09:54.072Z,-913.43
2019-01-03T05:10:54.229Z,-915.62
2019-01-03T05:11:54.300Z,-913.20
2019-01-03T05:12:54.454Z,-911.72
2019-01-03T05:13:54.533Z,-913.65
2019-01-03T05:14:54.696Z,-912.36
2019-01-03T05:15:54.783Z,-908.97
2019-01-03T05:16:54.917Z,-910.53
2019-01-03T05:17:54.981Z,-909.02
2019-01-03T05:18:55.104Z,-909.95
2019-01-03T05:19:55.249Z,-910.39
2019-01-03T05:20:55.374Z,-910.96
2019-01-03T05:21:55.447Z,-911.91
2019-01-03T05:22:55.589Z,-908.01
2019-01-03T05:23:57.435Z,-902.84
2019-01-03T05:24:56.074Z,-908.02
2019-01-03T05:25:55.901Z,-905.72
2019-01-03T05:26:56.001Z,-912.08
2019-01-03T05:27:56.132Z,-914.72
2019-01-03T05:28:56.216Z,-911.40
2019-01-03T05:29:56.354Z,-913.41
2019-01-03T05:30:56.476Z,-912.67
2019-01-03T05:31:56.576Z,-908.95
2019-01-03T05:32:56.729Z,-908.99
2019-01-03T05:33:56.836Z,-910.99
2019-01-03T05:34:56.952Z,-912.10
2019-01-03T05:35:57.059Z,-907.54
2019-01-03T05:36:57.166Z,-912.46
2019-01-03T05:37:57.306Z,-911.27
2019-01-03T05:38:57.396Z,-909.27
2019-01-03T05:39:57.534Z,-914.61
2019-01-03T05:40:57.637Z,-910.12
2019-01-03T05:41:57.850Z,-909.21
2019-01-03T05:42:57.872Z,-905.18
2019-01-03T05:43:57.973Z,-909.23
2019-01-03T05:44:58.079Z,-908.88
2019-01-03T05:45:58.670Z,-909.97
2019-01-03T05:46:58.330Z,-904.54
2019-01-03T05:47:58.478Z,-907.62
2019-01-03T05:48:58.567Z,-910.86
2019-01-03T05:49:58.747Z,-911.50
2019-01-03T05:50:58.787Z,-908.60
2019-01-03T05:51:58.899Z,-913.56
2019-01-03T05:52:59.033Z,-906.10
2019-01-03T05:53:59.138Z,-906.53
2019-01-03T05:54:59.247Z,-918.01
2019-01-03T05:55:59.376Z,-913.36
2019-01-03T05:56:59.462Z,-909.92
2019-01-03T05:57:59.650Z,-914.98
2019-01-03T05:58:59.690Z,-909.23
2019-01-03T05:59:59.809Z,-909.60
2019-01-03T06:00:59.966Z,-906.77
2019-01-03T06:02:00.035Z,-910.95
2019-01-03T06:03:00.144Z,-905.41
2019-01-03T06:04:00.288Z,-909.68
2019-01-03T06:05:00.394Z,-906.97
2019-01-03T06:06:00.580Z,-911.80
2019-01-03T06:07:00.630Z,-907.67
2019-01-03T06:08:00.752Z,-913.73
2019-01-03T06:09:00.888Z,-909.70
2019-01-03T06:10:01.090Z,-911.72
2019-01-03T06:11:01.181Z,-906.67
2019-01-03T06:12:01.255Z,-906.13
2019-01-03T06:13:01.370Z,-903.04
2019-01-03T06:14:01.740Z,-905.22
2019-01-03T06:15:01.719Z,-904.54
2019-01-03T06:16:01.758Z,-903.35
2019-01-03T06:17:01.828Z,-904.56
2019-01-03T06:18:01.944Z,-905.31
2019-01-03T06:19:02.065Z,-911.59
2019-01-03T06:20:02.157Z,-910.42
2019-01-03T06:21:02.331Z,-910.33
2019-01-03T06:22:02.406Z,-905.31
2019-01-03T06:23:02.628Z,-905.40
2019-01-03T06:24:02.630Z,-906.07
2019-01-03T06:25:02.728Z,-904.52
2019-01-03T06:26:03.000Z,-909.18
2019-01-03T06:27:02.974Z,-908.80
2019-01-03T06:28:03.093Z,-908.18
2019-01-03T06:29:03.222Z,-908.29
2019-01-03T06:30:03.326Z,-906.75
2019-01-03T06:31:03.528Z,-910.15
2019-01-03T06:32:03.564Z,-908.55
2019-01-03T06:33:03.640Z,-911.37
2019-01-03T06:34:03.790Z,-905.86
2019-01-03T06:35:03.887Z,-900.48
2019-01-03T06:36:04.002Z,-907.16
2019-01-03T06:37:04.143Z,-902.79
2019-01-03T06:38:04.249Z,-909.72
2019-01-03T06:39:04.417Z,-905.10
2019-01-03T06:40:04.459Z,-910.46
2019-01-03T06:41:04.603Z,-907.93
2019-01-03T06:42:04.708Z,-907.01
2019-01-03T06:43:04.813Z,-909.96
2019-01-03T06:44:04.935Z,-906.21
2019-01-03T06:45:05.039Z,-907.34
2019-01-03T06:46:05.176Z,-909.18
2019-01-03T06:47:05.332Z,-900.87
2019-01-03T06:48:05.417Z,-910.54
2019-01-03T06:49:05.525Z,-913.56
2019-01-03T06:50:05.620Z,-911.95
2019-01-03T06:51:05.753Z,-908.32
2019-01-03T06:52:05.877Z,-914.66
2019-01-03T06:53:05.949Z,-907.06
2019-01-03T06:54:06.082Z,-903.37
2019-01-03T06:55:06.212Z,-906.18
2019-01-03T06:56:06.420Z,-907.66
2019-01-03T06:57:06.458Z,-910.80
2019-01-03T06:58:06.526Z,-910.26
2019-01-03T06:59:06.670Z,-910.49
2019-01-03T07:00:06.777Z,-906.21
2019-01-03T07:01:06.900Z,-905.62
2019-01-03T07:02:07.022Z,-911.55
2019-01-03T07:03:07.110Z,-907.87
2019-01-03T07:04:07.382Z,-909.97
2019-01-03T07:05:07.346Z,-907.18
2019-01-03T07:06:07.464Z,-908.49
2019-01-03T07:07:07.635Z,-903.99
2019-01-03T07:08:07.695Z,-909.82
2019-01-03T07:09:07.811Z,-909.29
2019-01-03T07:10:07.933Z,-904.51
2019-01-03T07:11:08.056Z,-913.38
2019-01-03T07:12:08.287Z,-908.55
2019-01-03T07:13:08.286Z,-905.95
2019-01-03T07:14:08.426Z,-910.07
2019-01-03T07:15:08.532Z,-908.71
2019-01-03T07:16:08.635Z,-912.33
2019-01-03T07:17:08.791Z,-909.93
2019-01-03T07:18:08.878Z,-914.38
2019-01-03T07:19:09.000Z,-916.27
2019-01-03T07:20:09.154Z,-914.98
2019-01-03T07:21:09.177Z,-915.95
2019-01-03T07:22:09.355Z,-909.34
2019-01-03T07:23:09.427Z,-913.61
2019-01-03T07:24:09.566Z,-906.87
2019-01-03T07:25:09.671Z,-911.17
2019-01-03T07:26:09.782Z,-912.09
2019-01-03T07:27:09.935Z,-914.11
2019-01-03T07:28:10.056Z,-912.37
2019-01-03T07:29:10.230Z,-921.25
2019-01-03T07:30:10.238Z,-914.59
2019-01-03T07:31:10.416Z,-913.89
2019-01-03T07:32:10.500Z,-916.78
2019-01-03T07:33:10.591Z,-916.60
2019-01-03T07:34:10.731Z,-918.18
2019-01-03T07:35:10.836Z,-906.98
2019-01-03T07:36:10.962Z,-919.13
2019-01-03T07:37:11.224Z,-919.07
2019-01-03T07:38:11.186Z,-922.13
2019-01-03T07:39:11.319Z,-916.01
2019-01-03T07:40:11.412Z,-911.02
2019-01-03T07:41:11.531Z,-913.75
2019-01-03T07:42:11.681Z,-917.43
2019-01-03T07:43:11.742Z,-914.24
2019-01-03T07:44:11.895Z,-914.36
2019-01-03T07:45:12.055Z,-922.68
2019-01-03T07:46:12.089Z,-919.19
2019-01-03T07:47:12.300Z,-914.38
2019-01-03T07:48:12.313Z,-911.48
2019-01-03T07:49:12.459Z,-914.67
2019-01-03T07:50:12.558Z,-918.79
2019-01-03T07:51:12.673Z,-915.26
2019-01-03T07:52:12.838Z,-914.01
2019-01-03T07:53:12.956Z,-919.02
2019-01-03T07:54:13.234Z,-911.06
2019-01-03T07:55:13.126Z,-919.53
2019-01-03T07:56:13.238Z,-918.44
2019-01-03T07:57:13.398Z,-912.62
2019-01-03T07:58:13.468Z,-913.48
2019-01-03T07:59:13.606Z,-972.25
2019-01-03T08:00:13.686Z,-970.17
2019-01-03T08:01:13.854Z,-968.52
2019-01-03T08:02:13.941Z,-978.33
2019-01-03T08:03:14.031Z,-969.39
2019-01-03T08:04:14.164Z,-966.40
2019-01-03T08:05:14.271Z,-969.23
2019-01-03T08:06:14.372Z,-970.41
2019-01-03T08:07:14.707Z,-969.62
2019-01-03T08:08:14.621Z,-963.42
2019-01-03T08:09:14.753Z,-965.72
2019-01-03T08:10:14.938Z,-968.65
2019-01-03T08:11:14.956Z,-912.73
2019-01-03T08:12:15.115Z,-917.20
2019-01-03T08:13:15.198Z,-918.51
2019-01-03T08:14:15.314Z,-917.83
2019-01-03T08:15:15.451Z,-915.04
2019-01-03T08:16:15.562Z,-911.27
2019-01-03T08:17:15.709Z,-911.70
2019-01-03T08:18:15.929Z,-914.44
2019-01-03T08:19:15.901Z,-913.89
2019-01-03T08:20:16.036Z,-912.31
2019-01-03T08:21:16.147Z,-919.78
2019-01-03T08:22:16.264Z,-916.96
2019-01-03T08:23:16.407Z,-913.40
2019-01-03T08:24:16.506Z,-915.25
2019-01-03T08:25:16.647Z,-916.89
2019-01-03T08:26:16.804Z,-921.26
2019-01-03T08:27:16.832Z,-917.85
2019-01-03T08:28:16.961Z,-918.19
2019-01-03T08:29:17.073Z,-918.32
2019-01-03T08:30:17.192Z,-910.88
2019-01-03T08:31:17.295Z,-911.30
2019-01-03T08:32:17.452Z,-909.45
2019-01-03T08:33:17.584Z,-914.29
2019-01-03T08:34:17.705Z,-918.50
2019-01-03T08:35:17.773Z,-915.95
2019-01-03T08:36:17.878Z,-915.33
2019-01-03T08:37:18.015Z,-909.29
2019-01-03T08:38:18.146Z,-912.15
2019-01-03T08:39:18.204Z,-909.81
2019-01-03T08:40:18.351Z,-911.99
2019-01-03T08:41:18.471Z,-917.10
2019-01-03T08:42:18.645Z,-908.09
2019-01-03T08:43:18.741Z,-907.62
2019-01-03T08:44:18.806Z,-911.81
2019-01-03T08:45:18.953Z,-916.57
2019-01-03T08:46:19.069Z,-913.07
2019-01-03T08:47:19.199Z,-917.79
2019-01-03T08:48:19.307Z,-906.85
2019-01-03T08:49:19.429Z,-914.67
2019-01-03T08:50:19.542Z,-913.68
2019-01-03T08:51:19.736Z,-915.08
2019-01-03T08:52:19.788Z,-909.81
2019-01-03T08:53:19.895Z,-909.26
2019-01-03T08:54:20.003Z,-915.32
2019-01-03T08:55:20.120Z,-917.81
2019-01-03T08:56:20.235Z,-911.84
2019-01-03T08:57:20.383Z,-912.28
2019-01-03T08:58:20.503Z,-911.25
2019-01-03T08:59:20.721Z,-917.26
2019-01-03T09:00:20.724Z,-913.47
2019-01-03T09:01:21.626Z,-912.72
2019-01-03T09:02:20.966Z,-910.73
2019-01-03T09:03:21.133Z,-913.29
2019-01-03T09:04:21.187Z,-915.45
2019-01-03T09:05:21.311Z,-914.24
2019-01-03T09:06:21.406Z,-915.32
2019-01-03T09:07:21.632Z,-910.54
2019-01-03T09:08:21.641Z,-905.74
2019-01-03T09:09:21.754Z,-903.95
2019-01-03T09:10:21.884Z,-907.52
2019-01-03T09:11:21.983Z,-914.41
2019-01-03T09:12:22.084Z,-907.49
2019-01-03T09:13:22.242Z,-914.71
2019-01-03T09:14:22.329Z,-913.08
2019-01-03T09:15:22.516Z,-907.63
2019-01-03T09:16:22.543Z,-916.50
2019-01-03T09:17:22.653Z,-913.24
2019-01-03T09:18:22.809Z,-913.87
2019-01-03T09:19:22.922Z,-909.94
2019-01-03T09:20:23.058Z,-910.49
2019-01-03T09:21:23.162Z,-914.09
2019-01-03T09:22:23.276Z,-912.66
2019-01-03T09:23:23.460Z,-913.64
2019-01-03T09:24:23.581Z,-916.36
2019-01-03T09:25:23.657Z,-910.20
2019-01-03T09:26:23.753Z,-914.93
2019-01-03T09:27:23.869Z,-907.87
2019-01-03T09:28:24.141Z,-914.55
2019-01-03T09:29:24.083Z,-913.48
2019-01-03T09:30:24.235Z,-911.04
2019-01-03T09:31:24.350Z,-911.78
2019-01-03T09:32:24.554Z,-906.82
2019-01-03T09:33:24.821Z,-903.89
2019-01-03T09:34:24.683Z,-905.00
2019-01-03T09:35:24.819Z,-897.26
2019-01-03T09:36:24.924Z,-902.35
2019-01-03T09:37:27.061Z,-904.96
2019-01-03T09:38:25.193Z,-908.08
2019-01-03T09:39:25.280Z,-915.36
2019-01-03T09:40:25.536Z,-908.68
2019-01-03T09:41:25.498Z,-903.51
2019-01-03T09:42:25.615Z,-912.36
2019-01-03T09:43:25.749Z,-901.11
2019-01-03T09:44:25.862Z,-903.24
2019-01-03T09:45:25.972Z,-904.79
2019-01-03T09:46:26.077Z,-912.69
2019-01-03T09:47:26.191Z,-904.34
2019-01-03T09:48:26.383Z,-902.87
2019-01-03T09:49:26.400Z,-910.01
2019-01-03T09:50:26.580Z,-907.79
2019-01-03T09:51:26.643Z,-907.53
2019-01-03T09:52:26.774Z,-909.07
2019-01-03T09:53:26.907Z,-914.84
2019-01-03T09:54:27.004Z,-909.03
2019-01-03T09:55:27.146Z,-909.29
2019-01-03T09:56:27.281Z,-910.15
2019-01-03T09:57:27.328Z,-904.83
2019-01-03T09:58:27.474Z,-907.26
2019-01-03T09:59:27.576Z,-903.32
2019-01-03T10:00:27.728Z,-912.36
2019-01-03T10:01:27.799Z,-907.53
2019-01-03T10:02:27.906Z,-913.30
2019-01-03T10:03:28.047Z,-912.44
2019-01-03T10:04:28.323Z,-909.63
2019-01-03T10:05:28.369Z,-913.49
2019-01-03T10:06:28.393Z,-906.55
2019-01-03T10:07:28.494Z,-907.76
2019-01-03T10:08:28.660Z,-905.48
2019-01-03T10:09:28.755Z,-907.33
2019-01-03T10:10:28.877Z,-903.25
2019-01-03T10:11:29.015Z,-911.25
2019-01-03T10:12:29.095Z,-913.61
2019-01-03T10:13:29.398Z,-914.12
2019-01-03T10:14:29.342Z,-907.59
2019-01-03T10:15:29.452Z,-911.87
2019-01-03T10:16:29.577Z,-905.03
2019-01-03T10:17:29.665Z,-905.13
2019-01-03T10:18:29.788Z,-907.69
2019-01-03T10:19:29.935Z,-915.48
2019-01-03T10:20:30.040Z,-908.95
2019-01-03T10:21:30.241Z,-910.91
2019-01-03T10:22:30.263Z,-903.26
2019-01-03T10:23:30.401Z,-908.69
2019-01-03T10:24:30.496Z,-909.56
2019-01-03T10:25:30.648Z,-904.10
2019-01-03T10:26:30.747Z,-912.46
2019-01-03T10:27:30.862Z,-906.32
2019-01-03T10:28:30.998Z,-910.84
2019-01-03T10:29:31.119Z,-908.19
2019-01-03T10:30:31.214Z,-904.35
2019-01-03T10:31:31.385Z,-899.81
2019-01-03T10:32:31.446Z,-896.81
2019-01-03T10:33:31.584Z,-899.84
2019-01-03T10:34:31.678Z,-902.95
2019-01-03T10:35:31.778Z,-898.25
2019-01-03T10:36:31.932Z,-899.98
2019-01-03T10:37:32.106Z,-906.80
2019-01-03T10:38:32.166Z,-910.11
2019-01-03T10:39:32.256Z,-905.18
2019-01-03T10:40:32.363Z,-911.98
2019-01-03T10:41:32.489Z,-907.74
2019-01-03T10:42:32.633Z,-905.79
2019-01-03T10:43:32.738Z,-903.89
2019-01-03T10:44:32.835Z,-905.81
2019-01-03T10:45:32.963Z,-903.62
2019-01-03T10:46:33.185Z,-907.76
2019-01-03T10:47:33.205Z,-904.57
2019-01-03T10:48:33.302Z,-911.03
2019-01-03T10:49:33.410Z,-904.69
2019-01-03T10:50:33.528Z,-905.20
2019-01-03T10:51:33.659Z,-907.71
2019-01-03T10:52:33.750Z,-905.46
2019-01-03T10:53:33.889Z,-903.27
2019-01-03T10:54:34.103Z,-906.04
2019-01-03T10:55:34.099Z,-904.40
2019-01-03T10:56:34.238Z,-905.41
2019-01-03T10:57:34.386Z,-902.84
2019-01-03T10:58:34.467Z,-898.84
2019-01-03T10:59:34.590Z,-902.94
2019-01-03T11:00:34.693Z,-901.58
2019-01-03T11:01:34.838Z,-903.79
2019-01-03T11:02:35.002Z,-906.57
2019-01-03T11:03:35.041Z,-900.71
2019-01-03T11:04:35.139Z,-894.47
2019-01-03T11:05:35.248Z,-899.17
2019-01-03T11:06:35.391Z,-898.76
2019-01-03T11:07:35.514Z,-901.46
2019-01-03T11:08:35.604Z,-897.77
2019-01-03T11:09:35.703Z,-900.43
2019-01-03T11:10:35.907Z,-901.77
2019-01-03T11:11:36.179Z,-906.68
2019-01-03T11:12:36.080Z,-900.17
2019-01-03T11:13:36.180Z,-903.45
2019-01-03T11:14:36.266Z,-900.55
2019-01-03T11:15:36.381Z,-899.66
2019-01-03T11:16:36.528Z,-895.73
2019-01-03T11:17:36.665Z,-898.56
2019-01-03T11:18:36.799Z,-898.55
2019-01-03T11:19:36.914Z,-907.68
2019-01-03T11:20:36.977Z,-900.81
2019-01-03T11:21:37.125Z,-905.24
2019-01-03T11:22:37.237Z,-897.88
2019-01-03T11:23:37.349Z,-896.72
2019-01-03T11:24:37.454Z,-893.37
2019-01-03T11:25:37.565Z,-894.64
2019-01-03T11:26:37.698Z,-900.95
2019-01-03T11:27:37.939Z,-895.97
2019-01-03T11:28:37.980Z,-899.72
2019-01-03T11:29:38.079Z,-902.74
2019-01-03T11:30:38.180Z,-896.35
2019-01-03T11:31:38.314Z,-905.45
2019-01-03T11:32:38.450Z,-900.16
2019-01-03T11:33:38.567Z,-901.32
2019-01-03T11:34:38.673Z,-900.16
2019-01-03T11:35:38.914Z,-903.29
2019-01-03T11:36:38.969Z,-901.85
2019-01-03T11:37:39.039Z,-896.97
2019-01-03T11:38:39.159Z,-897.90
2019-01-03T11:39:39.281Z,-907.49
2019-01-03T11:40:39.384Z,-904.59
2019-01-03T11:41:39.517Z,-897.95
2019-01-03T11:42:39.597Z,-903.78
2019-01-03T11:43:39.799Z,-905.63
2019-01-03T11:44:39.842Z,-899.40
2019-01-03T11:45:39.950Z,-901.68
2019-01-03T11:46:40.086Z,-906.94
2019-01-03T11:47:40.164Z,-897.63
2019-01-03T11:48:40.300Z,-902.47
2019-01-03T11:49:40.445Z,-900.92
2019-01-03T11:50:40.545Z,-906.13
2019-01-03T11:51:40.759Z,-900.22
2019-01-03T11:52:40.751Z,-898.37
2019-01-03T11:53:40.886Z,-898.12
2019-01-03T11:54:41.043Z,-896.43
2019-01-03T11:55:41.110Z,-896.73
2019-01-03T11:56:41.243Z,-898.07
2019-01-03T11:57:44.478Z,-911.74
2019-01-03T11:58:41.476Z,-898.58
2019-01-03T11:59:41.603Z,-896.88
2019-01-03T12:00:41.720Z,-898.40
2019-01-03T12:01:41.813Z,-897.74
2019-01-03T12:02:41.920Z,-898.95
2019-01-03T12:03:42.063Z,-908.06
2019-01-03T12:04:42.168Z,-905.18
2019-01-03T12:05:42.256Z,-906.04
2019-01-03T12:06:42.403Z,-903.25